sensor_id;sensor_type;location;lat;lon;timestamp;temperature;humidity
4809;DHT22;2418;49.930;8.606;2022-12-24T00:01:59;11.30;99.20
4809;DHT22;2418;49.930;8.606;2022-12-24T00:04:25;11.30;99.20
4809;DHT22;2418;49.930;8.606;2022-12-24T00:06:50;11.40;99.20
4809;DHT22;2418;49.930;8.606;2022-12-24T00:09:16;11.50;99.20
4809;DHT22;2418;49.930;8.606;2022-12-24T00:11:42;11.50;99.20
4809;DHT22;2418;49.930;8.606;2022-12-24T00:14:07;11.50;99.20
4809;DHT22;2418;49.930;8.606;2022-12-24T00:16:33;11.50;99.20
4809;DHT22;2418;49.930;8.606;2022-12-24T00:18:58;11.50;99.20
4809;DHT22;2418;49.930;8.606;2022-12-24T00:21:24;11.50;99.20
4809;DHT22;2418;49.930;8.606;2022-12-24T00:23:50;11.40;99.20
4809;DHT22;2418;49.930;8.606;2022-12-24T00:26:15;11.40;99.20
4809;DHT22;2418;49.930;8.606;2022-12-24T00:28:41;11.30;99.20
4809;DHT22;2418;49.930;8.606;2022-12-24T00:31:17;11.30;99.20
4809;DHT22;2418;49.930;8.606;2022-12-24T00:33:45;11.20;99.20
4809;DHT22;2418;49.930;8.606;2022-12-24T00:36:11;11.10;99.20
4809;DHT22;2418;49.930;8.606;2022-12-24T00:38:37;11.10;99.20
4809;DHT22;2418;49.930;8.606;2022-12-24T00:41:05;11.10;99.20
4809;DHT22;2418;49.930;8.606;2022-12-24T00:43:31;11.10;99.20
4809;DHT22;2418;49.930;8.606;2022-12-24T00:45:57;11.00;99.20
4809;DHT22;2418;49.930;8.606;2022-12-24T00:48:23;11.00;99.20
4809;DHT22;2418;49.930;8.606;2022-12-24T00:50:49;11.00;99.20
4809;DHT22;2418;49.930;8.606;2022-12-24T00:53:16;10.90;99.20
4809;DHT22;2418;49.930;8.606;2022-12-24T00:55:42;10.90;99.20
4809;DHT22;2418;49.930;8.606;2022-12-24T00:58:07;10.90;99.20
4809;DHT22;2418;49.930;8.606;2022-12-24T01:00:33;11.00;99.20
4809;DHT22;2418;49.930;8.606;2022-12-24T01:02:58;11.00;99.20
4809;DHT22;2418;49.930;8.606;2022-12-24T01:05:24;10.90;99.20
4809;DHT22;2418;49.930;8.606;2022-12-24T01:07:50;10.90;99.20
4809;DHT22;2418;49.930;8.606;2022-12-24T01:10:18;10.90;99.20
4809;DHT22;2418;49.930;8.606;2022-12-24T01:12:45;10.80;99.20
4809;DHT22;2418;49.930;8.606;2022-12-24T01:15:12;10.70;99.20
4809;DHT22;2418;49.930;8.606;2022-12-24T01:17:39;10.70;99.20
4809;DHT22;2418;49.930;8.606;2022-12-24T01:20:06;10.70;99.20
4809;DHT22;2418;49.930;8.606;2022-12-24T01:22:33;10.70;99.20
4809;DHT22;2418;49.930;8.606;2022-12-24T01:24:58;10.70;99.20
4809;DHT22;2418;49.930;8.606;2022-12-24T01:27:24;10.80;99.20
4809;DHT22;2418;49.930;8.606;2022-12-24T01:29:50;10.80;99.20
4809;DHT22;2418;49.930;8.606;2022-12-24T01:32:15;10.80;99.20
4809;DHT22;2418;49.930;8.606;2022-12-24T01:34:41;10.80;99.20
4809;DHT22;2418;49.930;8.606;2022-12-24T01:37:07;10.80;99.20
4809;DHT22;2418;49.930;8.606;2022-12-24T01:39:32;10.70;99.20
4809;DHT22;2418;49.930;8.606;2022-12-24T01:41:58;10.70;99.20
4809;DHT22;2418;49.930;8.606;2022-12-24T01:44:43;10.60;99.20
4809;DHT22;2418;49.930;8.606;2022-12-24T01:50:12;10.60;99.20
4809;DHT22;2418;49.930;8.606;2022-12-24T01:52:41;10.50;99.20
4809;DHT22;2418;49.930;8.606;2022-12-24T01:55:11;10.40;99.20
4809;DHT22;2418;49.930;8.606;2022-12-24T01:57:42;10.30;99.20
4809;DHT22;2418;49.930;8.606;2022-12-24T02:00:11;10.20;99.20
4809;DHT22;2418;49.930;8.606;2022-12-24T02:02:39;10.20;99.20
4809;DHT22;2418;49.930;8.606;2022-12-24T02:05:27;10.20;99.20
4809;DHT22;2418;49.930;8.606;2022-12-24T02:07:54;10.10;99.20
4809;DHT22;2418;49.930;8.606;2022-12-24T02:10:21;10.10;99.20
4809;DHT22;2418;49.930;8.606;2022-12-24T02:12:48;10.00;99.20
4809;DHT22;2418;49.930;8.606;2022-12-24T02:15:17;10.00;99.20
4809;DHT22;2418;49.930;8.606;2022-12-24T02:18:19;9.90;99.20
4809;DHT22;2418;49.930;8.606;2022-12-24T02:23:48;9.80;99.20
4809;DHT22;2418;49.930;8.606;2022-12-24T02:32:13;9.80;99.20
4809;DHT22;2418;49.930;8.606;2022-12-24T02:34:49;9.80;99.20
4809;DHT22;2418;49.930;8.606;2022-12-24T02:37:27;9.90;99.20
4809;DHT22;2418;49.930;8.606;2022-12-24T02:40:18;9.90;99.20
4809;DHT22;2418;49.930;8.606;2022-12-24T02:42:50;9.90;99.20
4809;DHT22;2418;49.930;8.606;2022-12-24T02:45:21;10.00;99.20
4809;DHT22;2418;49.930;8.606;2022-12-24T02:47:51;10.00;99.20
4809;DHT22;2418;49.930;8.606;2022-12-24T02:50:18;10.10;99.20
4809;DHT22;2418;49.930;8.606;2022-12-24T02:52:45;10.10;99.20
4809;DHT22;2418;49.930;8.606;2022-12-24T02:55:18;10.20;99.20
4809;DHT22;2418;49.930;8.606;2022-12-24T02:57:51;10.20;99.20
4809;DHT22;2418;49.930;8.606;2022-12-24T03:00:20;10.20;99.20
4809;DHT22;2418;49.930;8.606;2022-12-24T03:03:13;10.20;99.20
4809;DHT22;2418;49.930;8.606;2022-12-24T03:11:07;10.30;99.20
4809;DHT22;2418;49.930;8.606;2022-12-24T03:13:33;10.30;99.20
4809;DHT22;2418;49.930;8.606;2022-12-24T03:16:00;10.30;99.20
4809;DHT22;2418;49.930;8.606;2022-12-24T03:18:29;10.30;99.20
4809;DHT22;2418;49.930;8.606;2022-12-24T03:21:15;10.30;99.20
4809;DHT22;2418;49.930;8.606;2022-12-24T03:23:42;10.40;99.20
4809;DHT22;2418;49.930;8.606;2022-12-24T03:26:10;10.40;99.20
4809;DHT22;2418;49.930;8.606;2022-12-24T03:28:38;10.40;99.20
4809;DHT22;2418;49.930;8.606;2022-12-24T03:31:06;10.30;99.20
4809;DHT22;2418;49.930;8.606;2022-12-24T03:33:32;10.30;99.20
4809;DHT22;2418;49.930;8.606;2022-12-24T03:35:57;10.30;99.20
4809;DHT22;2418;49.930;8.606;2022-12-24T03:38:23;10.30;99.20
4809;DHT22;2418;49.930;8.606;2022-12-24T03:40:48;10.30;99.20
4809;DHT22;2418;49.930;8.606;2022-12-24T03:43:14;10.30;99.20
4809;DHT22;2418;49.930;8.606;2022-12-24T03:45:40;10.30;99.20
4809;DHT22;2418;49.930;8.606;2022-12-24T03:48:05;10.30;99.20
4809;DHT22;2418;49.930;8.606;2022-12-24T03:50:31;10.40;99.20
4809;DHT22;2418;49.930;8.606;2022-12-24T03:52:57;10.40;99.20
4809;DHT22;2418;49.930;8.606;2022-12-24T03:55:23;10.40;99.20
4809;DHT22;2418;49.930;8.606;2022-12-24T03:57:49;10.40;99.20
4809;DHT22;2418;49.930;8.606;2022-12-24T04:00:15;10.50;99.20
4809;DHT22;2418;49.930;8.606;2022-12-24T04:02:40;10.50;99.20
4809;DHT22;2418;49.930;8.606;2022-12-24T04:05:07;10.50;99.20
4809;DHT22;2418;49.930;8.606;2022-12-24T04:07:33;10.60;99.20
4809;DHT22;2418;49.930;8.606;2022-12-24T04:09:59;10.60;99.20
4809;DHT22;2418;49.930;8.606;2022-12-24T04:12:25;10.60;99.20
4809;DHT22;2418;49.930;8.606;2022-12-24T04:14:50;10.60;99.20
4809;DHT22;2418;49.930;8.606;2022-12-24T04:17:16;10.60;99.20
4809;DHT22;2418;49.930;8.606;2022-12-24T04:19:42;10.60;99.20
4809;DHT22;2418;49.930;8.606;2022-12-24T04:22:08;10.50;99.20
4809;DHT22;2418;49.930;8.606;2022-12-24T04:24:33;10.50;99.20
4809;DHT22;2418;49.930;8.606;2022-12-24T04:26:59;10.50;99.20
4809;DHT22;2418;49.930;8.606;2022-12-24T04:29:25;10.50;99.20
4809;DHT22;2418;49.930;8.606;2022-12-24T04:31:50;10.50;99.20
4809;DHT22;2418;49.930;8.606;2022-12-24T04:34:16;10.40;99.20
4809;DHT22;2418;49.930;8.606;2022-12-24T04:36:41;10.40;99.20
4809;DHT22;2418;49.930;8.606;2022-12-24T04:39:08;10.40;99.20
4809;DHT22;2418;49.930;8.606;2022-12-24T04:41:34;10.40;99.20
4809;DHT22;2418;49.930;8.606;2022-12-24T04:43:59;10.40;99.20
4809;DHT22;2418;49.930;8.606;2022-12-24T04:46:28;10.40;99.20
4809;DHT22;2418;49.930;8.606;2022-12-24T04:48:57;10.40;99.20
4809;DHT22;2418;49.930;8.606;2022-12-24T04:51:23;10.50;99.20
4809;DHT22;2418;49.930;8.606;2022-12-24T04:53:49;10.40;99.20
4809;DHT22;2418;49.930;8.606;2022-12-24T04:56:20;10.40;99.20
4809;DHT22;2418;49.930;8.606;2022-12-24T04:58:47;10.30;99.20
4809;DHT22;2418;49.930;8.606;2022-12-24T05:01:16;10.30;99.20
4809;DHT22;2418;49.930;8.606;2022-12-24T05:03:42;10.30;99.20
4809;DHT22;2418;49.930;8.606;2022-12-24T05:06:10;10.20;99.20
4809;DHT22;2418;49.930;8.606;2022-12-24T05:08:37;10.10;99.20
4809;DHT22;2418;49.930;8.606;2022-12-24T05:11:03;10.10;99.20
4809;DHT22;2418;49.930;8.606;2022-12-24T05:13:29;10.00;99.20
4809;DHT22;2418;49.930;8.606;2022-12-24T05:15:55;9.90;99.20
4809;DHT22;2418;49.930;8.606;2022-12-24T05:18:21;9.90;99.20
4809;DHT22;2418;49.930;8.606;2022-12-24T05:20:47;9.90;99.20
4809;DHT22;2418;49.930;8.606;2022-12-24T05:23:18;9.90;99.20
4809;DHT22;2418;49.930;8.606;2022-12-24T05:26:10;9.80;99.20
4809;DHT22;2418;49.930;8.606;2022-12-24T05:28:53;9.70;99.20
4809;DHT22;2418;49.930;8.606;2022-12-24T05:31:20;9.70;99.20
4809;DHT22;2418;49.930;8.606;2022-12-24T05:33:46;9.70;99.20
4809;DHT22;2418;49.930;8.606;2022-12-24T05:36:12;9.80;99.20
4809;DHT22;2418;49.930;8.606;2022-12-24T05:38:37;9.70;99.20
4809;DHT22;2418;49.930;8.606;2022-12-24T05:41:03;9.70;99.20
4809;DHT22;2418;49.930;8.606;2022-12-24T05:43:29;9.70;99.20
4809;DHT22;2418;49.930;8.606;2022-12-24T05:46:03;9.80;99.20
4809;DHT22;2418;49.930;8.606;2022-12-24T05:48:29;9.80;99.20
4809;DHT22;2418;49.930;8.606;2022-12-24T05:50:56;9.90;99.20
4809;DHT22;2418;49.930;8.606;2022-12-24T05:53:22;9.90;99.20
4809;DHT22;2418;49.930;8.606;2022-12-24T05:55:48;10.00;99.20
4809;DHT22;2418;49.930;8.606;2022-12-24T05:58:14;10.00;99.20
4809;DHT22;2418;49.930;8.606;2022-12-24T06:00:40;10.00;99.20
4809;DHT22;2418;49.930;8.606;2022-12-24T06:03:05;10.00;99.20
4809;DHT22;2418;49.930;8.606;2022-12-24T06:05:31;10.00;99.20
4809;DHT22;2418;49.930;8.606;2022-12-24T06:07:57;10.00;99.20
4809;DHT22;2418;49.930;8.606;2022-12-24T06:10:23;9.90;99.20
4809;DHT22;2418;49.930;8.606;2022-12-24T06:12:48;9.90;99.20
4809;DHT22;2418;49.930;8.606;2022-12-24T06:15:14;10.00;99.20
4809;DHT22;2418;49.930;8.606;2022-12-24T06:17:40;10.00;99.20
4809;DHT22;2418;49.930;8.606;2022-12-24T06:20:06;10.00;99.20
4809;DHT22;2418;49.930;8.606;2022-12-24T06:22:31;10.10;99.20
4809;DHT22;2418;49.930;8.606;2022-12-24T06:24:57;10.10;99.20
4809;DHT22;2418;49.930;8.606;2022-12-24T06:27:23;10.00;99.20
4809;DHT22;2418;49.930;8.606;2022-12-24T06:29:49;10.10;99.20
4809;DHT22;2418;49.930;8.606;2022-12-24T06:32:14;10.10;99.20
4809;DHT22;2418;49.930;8.606;2022-12-24T06:34:40;10.00;99.20
4809;DHT22;2418;49.930;8.606;2022-12-24T06:37:06;10.00;99.20
4809;DHT22;2418;49.930;8.606;2022-12-24T06:39:31;10.10;99.20
4809;DHT22;2418;49.930;8.606;2022-12-24T06:41:57;10.10;99.20
4809;DHT22;2418;49.930;8.606;2022-12-24T06:44:22;10.00;99.20
4809;DHT22;2418;49.930;8.606;2022-12-24T06:46:49;10.00;99.20
4809;DHT22;2418;49.930;8.606;2022-12-24T06:49:14;9.90;99.20
4809;DHT22;2418;49.930;8.606;2022-12-24T06:51:41;9.90;99.20
4809;DHT22;2418;49.930;8.606;2022-12-24T06:54:07;9.90;99.20
4809;DHT22;2418;49.930;8.606;2022-12-24T06:56:32;10.00;99.20
4809;DHT22;2418;49.930;8.606;2022-12-24T06:58:59;10.00;99.20
4809;DHT22;2418;49.930;8.606;2022-12-24T07:01:24;10.00;99.20
4809;DHT22;2418;49.930;8.606;2022-12-24T07:03:51;10.00;99.20
4809;DHT22;2418;49.930;8.606;2022-12-24T07:06:20;10.10;99.20
4809;DHT22;2418;49.930;8.606;2022-12-24T07:08:49;10.10;99.20
4809;DHT22;2418;49.930;8.606;2022-12-24T07:11:15;10.20;99.20
4809;DHT22;2418;49.930;8.606;2022-12-24T07:13:40;10.10;99.20
4809;DHT22;2418;49.930;8.606;2022-12-24T07:16:06;10.20;99.20
4809;DHT22;2418;49.930;8.606;2022-12-24T07:18:32;10.20;99.20
4809;DHT22;2418;49.930;8.606;2022-12-24T07:20:58;10.30;99.20
4809;DHT22;2418;49.930;8.606;2022-12-24T07:23:24;10.30;99.20
4809;DHT22;2418;49.930;8.606;2022-12-24T07:25:49;10.30;99.20
4809;DHT22;2418;49.930;8.606;2022-12-24T07:28:15;10.40;99.20
4809;DHT22;2418;49.930;8.606;2022-12-24T07:30:40;10.40;99.20
4809;DHT22;2418;49.930;8.606;2022-12-24T07:33:06;10.40;99.20
4809;DHT22;2418;49.930;8.606;2022-12-24T07:35:32;10.40;99.20
4809;DHT22;2418;49.930;8.606;2022-12-24T07:37:58;10.40;99.20
4809;DHT22;2418;49.930;8.606;2022-12-24T07:40:24;10.40;99.20
4809;DHT22;2418;49.930;8.606;2022-12-24T07:42:50;10.40;99.20
4809;DHT22;2418;49.930;8.606;2022-12-24T07:45:15;10.50;99.20
4809;DHT22;2418;49.930;8.606;2022-12-24T07:47:41;10.50;99.20
4809;DHT22;2418;49.930;8.606;2022-12-24T07:50:07;10.50;99.20
4809;DHT22;2418;49.930;8.606;2022-12-24T07:52:32;10.60;99.20
4809;DHT22;2418;49.930;8.606;2022-12-24T07:54:58;10.60;99.20
4809;DHT22;2418;49.930;8.606;2022-12-24T07:57:24;10.60;99.20
4809;DHT22;2418;49.930;8.606;2022-12-24T07:59:49;10.50;99.20
4809;DHT22;2418;49.930;8.606;2022-12-24T08:02:15;10.50;99.20
4809;DHT22;2418;49.930;8.606;2022-12-24T08:04:40;10.60;99.20
4809;DHT22;2418;49.930;8.606;2022-12-24T08:07:06;10.60;99.20
4809;DHT22;2418;49.930;8.606;2022-12-24T08:09:36;10.60;99.20
4809;DHT22;2418;49.930;8.606;2022-12-24T08:12:03;10.60;99.20
4809;DHT22;2418;49.930;8.606;2022-12-24T08:14:29;10.60;99.20
4809;DHT22;2418;49.930;8.606;2022-12-24T08:16:55;10.70;99.20
4809;DHT22;2418;49.930;8.606;2022-12-24T08:19:21;10.70;99.20
4809;DHT22;2418;49.930;8.606;2022-12-24T08:21:47;10.70;99.20
4809;DHT22;2418;49.930;8.606;2022-12-24T08:24:12;10.70;99.20
4809;DHT22;2418;49.930;8.606;2022-12-24T08:26:38;10.70;99.20
4809;DHT22;2418;49.930;8.606;2022-12-24T08:29:05;10.60;99.20
4809;DHT22;2418;49.930;8.606;2022-12-24T08:31:31;10.70;99.20
4809;DHT22;2418;49.930;8.606;2022-12-24T08:34:04;10.60;99.20
4809;DHT22;2418;49.930;8.606;2022-12-24T08:36:31;10.70;99.20
4809;DHT22;2418;49.930;8.606;2022-12-24T08:38:56;10.70;99.20
4809;DHT22;2418;49.930;8.606;2022-12-24T08:41:22;10.70;99.20
4809;DHT22;2418;49.930;8.606;2022-12-24T08:43:48;10.70;99.20
4809;DHT22;2418;49.930;8.606;2022-12-24T08:46:13;10.70;99.20
4809;DHT22;2418;49.930;8.606;2022-12-24T08:48:39;10.70;99.20
4809;DHT22;2418;49.930;8.606;2022-12-24T08:51:08;10.70;99.20
4809;DHT22;2418;49.930;8.606;2022-12-24T08:53:34;10.80;99.20
4809;DHT22;2418;49.930;8.606;2022-12-24T08:56:06;10.80;99.20
4809;DHT22;2418;49.930;8.606;2022-12-24T08:58:32;10.80;99.20
4809;DHT22;2418;49.930;8.606;2022-12-24T09:00:59;10.70;99.20
4809;DHT22;2418;49.930;8.606;2022-12-24T09:03:25;10.70;99.20
4809;DHT22;2418;49.930;8.606;2022-12-24T09:05:50;10.70;99.20
4809;DHT22;2418;49.930;8.606;2022-12-24T09:08:18;10.60;99.20
4809;DHT22;2418;49.930;8.606;2022-12-24T09:10:45;10.60;99.20
4809;DHT22;2418;49.930;8.606;2022-12-24T09:13:10;10.60;99.20
4809;DHT22;2418;49.930;8.606;2022-12-24T09:15:36;10.60;99.20
4809;DHT22;2418;49.930;8.606;2022-12-24T09:18:02;10.60;99.20
4809;DHT22;2418;49.930;8.606;2022-12-24T09:20:28;10.70;99.20
4809;DHT22;2418;49.930;8.606;2022-12-24T09:22:54;10.70;99.20
4809;DHT22;2418;49.930;8.606;2022-12-24T09:25:20;10.70;99.20
4809;DHT22;2418;49.930;8.606;2022-12-24T09:27:45;10.80;99.20
4809;DHT22;2418;49.930;8.606;2022-12-24T09:30:12;10.80;99.20
4809;DHT22;2418;49.930;8.606;2022-12-24T09:32:37;10.90;99.20
4809;DHT22;2418;49.930;8.606;2022-12-24T09:35:03;10.90;99.20
4809;DHT22;2418;49.930;8.606;2022-12-24T09:37:29;11.00;99.20
4809;DHT22;2418;49.930;8.606;2022-12-24T09:39:54;11.00;99.20
4809;DHT22;2418;49.930;8.606;2022-12-24T09:42:50;11.00;99.20
4809;DHT22;2418;49.930;8.606;2022-12-24T09:45:30;11.10;99.20
4809;DHT22;2418;49.930;8.606;2022-12-24T09:48:16;11.10;99.20
4809;DHT22;2418;49.930;8.606;2022-12-24T09:51:10;11.20;99.20
4809;DHT22;2418;49.930;8.606;2022-12-24T09:54:02;11.20;99.20
4809;DHT22;2418;49.930;8.606;2022-12-24T09:56:39;11.30;99.20
4809;DHT22;2418;49.930;8.606;2022-12-24T09:59:10;11.40;99.20
4809;DHT22;2418;49.930;8.606;2022-12-24T10:01:37;11.50;99.20
4809;DHT22;2418;49.930;8.606;2022-12-24T10:04:09;11.70;99.20
4809;DHT22;2418;49.930;8.606;2022-12-24T10:06:52;11.70;99.20
4809;DHT22;2418;49.930;8.606;2022-12-24T10:09:48;11.70;99.20
4809;DHT22;2418;49.930;8.606;2022-12-24T10:12:39;11.80;99.20
4809;DHT22;2418;49.930;8.606;2022-12-24T10:24:11;12.00;99.20
4809;DHT22;2418;49.930;8.606;2022-12-24T10:26:45;12.10;99.20
4809;DHT22;2418;49.930;8.606;2022-12-24T10:29:17;12.30;99.20
4809;DHT22;2418;49.930;8.606;2022-12-24T10:32:20;12.50;99.20
4809;DHT22;2418;49.930;8.606;2022-12-24T10:34:48;12.70;99.20
4809;DHT22;2418;49.930;8.606;2022-12-24T10:37:22;12.80;99.20
4809;DHT22;2418;49.930;8.606;2022-12-24T10:39:50;13.10;99.20
4809;DHT22;2418;49.930;8.606;2022-12-24T10:42:16;13.50;99.20
4809;DHT22;2418;49.930;8.606;2022-12-24T10:44:49;13.60;99.20
4809;DHT22;2418;49.930;8.606;2022-12-24T10:47:16;13.80;99.20
4809;DHT22;2418;49.930;8.606;2022-12-24T10:52:36;13.70;99.20
4809;DHT22;2418;49.930;8.606;2022-12-24T10:57:36;13.80;99.20
4809;DHT22;2418;49.930;8.606;2022-12-24T11:00:04;13.80;99.20
4809;DHT22;2418;49.930;8.606;2022-12-24T11:02:39;13.70;99.20
4809;DHT22;2418;49.930;8.606;2022-12-24T11:05:32;13.60;99.20
4809;DHT22;2418;49.930;8.606;2022-12-24T11:10:43;13.40;99.20
4809;DHT22;2418;49.930;8.606;2022-12-24T11:13:29;13.40;99.20
4809;DHT22;2418;49.930;8.606;2022-12-24T11:18:50;13.40;99.20
4809;DHT22;2418;49.930;8.606;2022-12-24T11:21:34;13.40;99.20
4809;DHT22;2418;49.930;8.606;2022-12-24T11:24:07;13.40;99.20
4809;DHT22;2418;49.930;8.606;2022-12-24T11:26:34;13.40;99.20
4809;DHT22;2418;49.930;8.606;2022-12-24T11:29:04;13.30;99.20
4809;DHT22;2418;49.930;8.606;2022-12-24T11:31:30;13.20;99.20
4809;DHT22;2418;49.930;8.606;2022-12-24T11:33:57;13.10;99.20
4809;DHT22;2418;49.930;8.606;2022-12-24T11:36:23;12.90;99.20
4809;DHT22;2418;49.930;8.606;2022-12-24T11:38:57;12.80;99.20
4809;DHT22;2418;49.930;8.606;2022-12-24T11:41:25;12.70;99.20
4809;DHT22;2418;49.930;8.606;2022-12-24T11:43:58;12.60;99.20
4809;DHT22;2418;49.930;8.606;2022-12-24T11:51:35;12.60;99.20
4809;DHT22;2418;49.930;8.606;2022-12-24T11:54:18;12.60;99.20
4809;DHT22;2418;49.930;8.606;2022-12-24T11:56:50;12.60;99.20
4809;DHT22;2418;49.930;8.606;2022-12-24T11:59:36;12.60;99.20
4809;DHT22;2418;49.930;8.606;2022-12-24T12:02:27;12.80;99.20
4809;DHT22;2418;49.930;8.606;2022-12-24T12:05:02;12.90;99.20
4809;DHT22;2418;49.930;8.606;2022-12-24T12:07:31;13.20;99.20
4809;DHT22;2418;49.930;8.606;2022-12-24T12:10:05;13.30;99.20
4809;DHT22;2418;49.930;8.606;2022-12-24T12:12:35;13.50;99.20
4809;DHT22;2418;49.930;8.606;2022-12-24T12:17:55;13.50;99.20
4809;DHT22;2418;49.930;8.606;2022-12-24T12:20:33;13.40;99.20
4809;DHT22;2418;49.930;8.606;2022-12-24T12:25:49;13.20;99.20
4809;DHT22;2418;49.930;8.606;2022-12-24T12:28:22;13.30;99.20
4809;DHT22;2418;49.930;8.606;2022-12-24T12:31:31;13.40;99.20
4809;DHT22;2418;49.930;8.606;2022-12-24T12:34:08;13.70;99.20
4809;DHT22;2418;49.930;8.606;2022-12-24T12:36:45;13.70;99.20
4809;DHT22;2418;49.930;8.606;2022-12-24T12:39:12;13.70;99.20
4809;DHT22;2418;49.930;8.606;2022-12-24T12:42:08;13.70;99.20
4809;DHT22;2418;49.930;8.606;2022-12-24T12:50:37;13.80;99.20
4809;DHT22;2418;49.930;8.606;2022-12-24T12:58:40;13.40;99.20
4809;DHT22;2418;49.930;8.606;2022-12-24T13:01:24;13.50;99.20
4809;DHT22;2418;49.930;8.606;2022-12-24T13:04:31;13.50;99.20
4809;DHT22;2418;49.930;8.606;2022-12-24T13:12:59;13.30;99.20
4809;DHT22;2418;49.930;8.606;2022-12-24T13:15:44;13.20;99.20
4809;DHT22;2418;49.930;8.606;2022-12-24T13:21:20;13.10;99.20
4809;DHT22;2418;49.930;8.606;2022-12-24T13:23:47;13.10;99.20
4809;DHT22;2418;49.930;8.606;2022-12-24T13:26:13;13.10;99.20
4809;DHT22;2418;49.930;8.606;2022-12-24T13:28:40;13.00;99.20
4809;DHT22;2418;49.930;8.606;2022-12-24T13:33:50;13.00;99.20
4809;DHT22;2418;49.930;8.606;2022-12-24T13:36:18;13.00;99.20
4809;DHT22;2418;49.930;8.606;2022-12-24T13:38:53;12.90;99.20
4809;DHT22;2418;49.930;8.606;2022-12-24T13:46:56;12.80;99.20
4809;DHT22;2418;49.930;8.606;2022-12-24T13:49:42;12.60;99.20
4809;DHT22;2418;49.930;8.606;2022-12-24T13:55:01;12.30;99.20
4809;DHT22;2418;49.930;8.606;2022-12-24T13:57:30;12.10;99.20
4809;DHT22;2418;49.930;8.606;2022-12-24T14:00:00;12.00;99.20
4809;DHT22;2418;49.930;8.606;2022-12-24T14:02:31;11.90;99.20
4809;DHT22;2418;49.930;8.606;2022-12-24T14:05:00;11.90;99.20
4809;DHT22;2418;49.930;8.606;2022-12-24T14:07:27;11.90;99.20
4809;DHT22;2418;49.930;8.606;2022-12-24T14:09:56;11.90;99.20
4809;DHT22;2418;49.930;8.606;2022-12-24T14:12:45;12.00;99.20
4809;DHT22;2418;49.930;8.606;2022-12-24T14:15:44;12.00;99.20
4809;DHT22;2418;49.930;8.606;2022-12-24T14:18:10;12.00;99.20
4809;DHT22;2418;49.930;8.606;2022-12-24T14:20:42;12.10;99.20
4809;DHT22;2418;49.930;8.606;2022-12-24T14:25:50;12.10;99.20
4809;DHT22;2418;49.930;8.606;2022-12-24T14:28:18;12.00;99.20
4809;DHT22;2418;49.930;8.606;2022-12-24T14:30:59;12.10;99.20
4809;DHT22;2418;49.930;8.606;2022-12-24T14:33:30;12.10;99.20
4809;DHT22;2418;49.930;8.606;2022-12-24T14:35:56;12.00;99.20
4809;DHT22;2418;49.930;8.606;2022-12-24T14:38:23;12.00;99.20
4809;DHT22;2418;49.930;8.606;2022-12-24T14:43:52;11.80;99.20
4809;DHT22;2418;49.930;8.606;2022-12-24T14:46:48;11.70;99.20
4809;DHT22;2418;49.930;8.606;2022-12-24T14:52:22;11.50;99.20
4809;DHT22;2418;49.930;8.606;2022-12-24T14:54:49;11.40;99.20
4809;DHT22;2418;49.930;8.606;2022-12-24T14:57:24;11.20;99.20
4809;DHT22;2418;49.930;8.606;2022-12-24T15:02:39;11.10;99.20
4809;DHT22;2418;49.930;8.606;2022-12-24T15:05:16;11.10;99.20
4809;DHT22;2418;49.930;8.606;2022-12-24T15:08:07;11.10;99.20
4809;DHT22;2418;49.930;8.606;2022-12-24T15:10:39;11.10;99.20
4809;DHT22;2418;49.930;8.606;2022-12-24T15:15:55;11.10;99.20
4809;DHT22;2418;49.930;8.606;2022-12-24T15:18:30;11.20;99.20
4809;DHT22;2418;49.930;8.606;2022-12-24T15:21:00;11.20;99.20
4809;DHT22;2418;49.930;8.606;2022-12-24T15:23:32;11.20;99.20
4809;DHT22;2418;49.930;8.606;2022-12-24T15:28:39;11.10;99.20
4809;DHT22;2418;49.930;8.606;2022-12-24T15:31:20;11.00;99.20
4809;DHT22;2418;49.930;8.606;2022-12-24T15:33:47;11.00;99.20
4809;DHT22;2418;49.930;8.606;2022-12-24T15:36:15;11.00;99.20
4809;DHT22;2418;49.930;8.606;2022-12-24T15:38:44;10.90;99.20
4809;DHT22;2418;49.930;8.606;2022-12-24T15:41:23;10.80;99.20
4809;DHT22;2418;49.930;8.606;2022-12-24T15:43:50;10.70;99.20
4809;DHT22;2418;49.930;8.606;2022-12-24T15:46:18;10.70;99.20
4809;DHT22;2418;49.930;8.606;2022-12-24T15:48:44;10.60;99.20
4809;DHT22;2418;49.930;8.606;2022-12-24T15:51:11;10.50;99.20
4809;DHT22;2418;49.930;8.606;2022-12-24T15:53:42;10.40;99.20
4809;DHT22;2418;49.930;8.606;2022-12-24T15:56:33;10.30;99.20
4809;DHT22;2418;49.930;8.606;2022-12-24T16:01:44;10.10;99.20
4809;DHT22;2418;49.930;8.606;2022-12-24T16:04:23;10.10;99.20
4809;DHT22;2418;49.930;8.606;2022-12-24T16:09:42;10.00;99.20
4809;DHT22;2418;49.930;8.606;2022-12-24T16:12:22;10.00;99.20
4809;DHT22;2418;49.930;8.606;2022-12-24T16:15:11;10.00;99.20
4809;DHT22;2418;49.930;8.606;2022-12-24T16:17:38;10.00;99.20
4809;DHT22;2418;49.930;8.606;2022-12-24T16:20:06;10.00;99.20
4809;DHT22;2418;49.930;8.606;2022-12-24T16:22:41;10.00;99.20
4809;DHT22;2418;49.930;8.606;2022-12-24T16:25:25;10.00;99.20
4809;DHT22;2418;49.930;8.606;2022-12-24T16:27:52;10.10;99.20
4809;DHT22;2418;49.930;8.606;2022-12-24T16:30:18;10.00;99.20
4809;DHT22;2418;49.930;8.606;2022-12-24T16:32:48;10.00;99.20
4809;DHT22;2418;49.930;8.606;2022-12-24T16:35:29;10.00;99.20
4809;DHT22;2418;49.930;8.606;2022-12-24T16:37:57;9.90;99.20
4809;DHT22;2418;49.930;8.606;2022-12-24T16:40:23;9.90;99.20
4809;DHT22;2418;49.930;8.606;2022-12-24T16:42:49;10.00;99.20
4809;DHT22;2418;49.930;8.606;2022-12-24T16:45:35;10.00;99.20
4809;DHT22;2418;49.930;8.606;2022-12-24T16:48:02;10.00;99.20
4809;DHT22;2418;49.930;8.606;2022-12-24T16:50:30;10.00;99.20
4809;DHT22;2418;49.930;8.606;2022-12-24T16:52:55;10.00;99.20
4809;DHT22;2418;49.930;8.606;2022-12-24T16:55:21;10.00;99.20
4809;DHT22;2418;49.930;8.606;2022-12-24T16:57:46;10.00;99.20
4809;DHT22;2418;49.930;8.606;2022-12-24T17:00:20;10.00;99.20
4809;DHT22;2418;49.930;8.606;2022-12-24T17:02:47;9.90;99.20
4809;DHT22;2418;49.930;8.606;2022-12-24T17:05:15;9.90;99.20
4809;DHT22;2418;49.930;8.606;2022-12-24T17:07:41;9.90;99.20
4809;DHT22;2418;49.930;8.606;2022-12-24T17:10:11;9.90;99.20
4809;DHT22;2418;49.930;8.606;2022-12-24T17:12:38;10.00;99.20
4809;DHT22;2418;49.930;8.606;2022-12-24T17:15:04;10.10;99.20
4809;DHT22;2418;49.930;8.606;2022-12-24T17:17:30;10.10;99.20
4809;DHT22;2418;49.930;8.606;2022-12-24T17:19:56;10.10;99.20
4809;DHT22;2418;49.930;8.606;2022-12-24T17:22:23;10.10;99.20
4809;DHT22;2418;49.930;8.606;2022-12-24T17:24:48;10.10;99.20
4809;DHT22;2418;49.930;8.606;2022-12-24T17:27:15;10.10;99.20
4809;DHT22;2418;49.930;8.606;2022-12-24T17:29:41;10.10;99.20
4809;DHT22;2418;49.930;8.606;2022-12-24T17:32:06;10.00;99.20
4809;DHT22;2418;49.930;8.606;2022-12-24T17:34:32;9.90;99.20
4809;DHT22;2418;49.930;8.606;2022-12-24T17:36:58;9.90;99.20
4809;DHT22;2418;49.930;8.606;2022-12-24T17:39:25;9.80;99.20
4809;DHT22;2418;49.930;8.606;2022-12-24T17:41:51;9.80;99.20
4809;DHT22;2418;49.930;8.606;2022-12-24T17:44:17;9.80;99.20
4809;DHT22;2418;49.930;8.606;2022-12-24T17:46:42;9.90;99.20
4809;DHT22;2418;49.930;8.606;2022-12-24T17:49:08;9.90;99.20
4809;DHT22;2418;49.930;8.606;2022-12-24T17:51:34;9.90;99.20
4809;DHT22;2418;49.930;8.606;2022-12-24T17:54:00;9.90;99.20
4809;DHT22;2418;49.930;8.606;2022-12-24T17:56:27;9.90;99.20
4809;DHT22;2418;49.930;8.606;2022-12-24T17:58:53;9.90;99.20
4809;DHT22;2418;49.930;8.606;2022-12-24T18:01:21;9.90;99.20
4809;DHT22;2418;49.930;8.606;2022-12-24T18:03:49;9.90;99.20